sensor_id;sensor_type;location;lat;lon;timestamp;temperature;humidity
52073;DHT22;38074;51.232;6.826;2023-02-19T00:00:34;25.10;44.00
52073;DHT22;38074;51.232;6.826;2023-02-19T00:07:50;25.00;44.10
52073;DHT22;38074;51.232;6.826;2023-02-19T00:15:06;25.00;44.10
52073;DHT22;38074;51.232;6.826;2023-02-19T00:22:21;25.00;44.10
52073;DHT22;38074;51.232;6.826;2023-02-19T00:29:37;25.00;44.10
52073;DHT22;38074;51.232;6.826;2023-02-19T00:36:52;25.00;44.10
52073;DHT22;38074;51.232;6.826;2023-02-19T00:44:09;25.00;44.10
52073;DHT22;38074;51.232;6.826;2023-02-19T00:51:28;24.90;44.10
52073;DHT22;38074;51.232;6.826;2023-02-19T00:58:43;24.90;44.20
52073;DHT22;38074;51.232;6.826;2023-02-19T01:05:59;24.90;44.20
52073;DHT22;38074;51.232;6.826;2023-02-19T01:13:16;24.90;44.20
52073;DHT22;38074;51.232;6.826;2023-02-19T01:20:31;24.90;44.20
52073;DHT22;38074;51.232;6.826;2023-02-19T01:27:47;24.90;44.20
52073;DHT22;38074;51.232;6.826;2023-02-19T01:35:03;24.80;44.20
52073;DHT22;38074;51.232;6.826;2023-02-19T01:42:19;24.80;44.20
52073;DHT22;38074;51.232;6.826;2023-02-19T01:49:38;24.80;44.20
52073;DHT22;38074;51.232;6.826;2023-02-19T01:56:56;24.80;44.20
52073;DHT22;38074;51.232;6.826;2023-02-19T02:04:12;24.80;44.30
52073;DHT22;38074;51.232;6.826;2023-02-19T02:11:29;24.80;44.30
52073;DHT22;38074;51.232;6.826;2023-02-19T02:19:21;24.80;44.30
52073;DHT22;38074;51.232;6.826;2023-02-19T02:34:18;24.70;44.30
52073;DHT22;38074;51.232;6.826;2023-02-19T02:41:43;24.70;44.30
52073;DHT22;38074;51.232;6.826;2023-02-19T02:49:04;24.70;44.30
52073;DHT22;38074;51.232;6.826;2023-02-19T02:56:21;24.70;44.30
52073;DHT22;38074;51.232;6.826;2023-02-19T03:03:42;24.70;44.30
52073;DHT22;38074;51.232;6.826;2023-02-19T03:11:09;24.70;44.40
52073;DHT22;38074;51.232;6.826;2023-02-19T03:18:45;24.70;44.40
52073;DHT22;38074;51.232;6.826;2023-02-19T03:26:22;24.70;44.40
52073;DHT22;38074;51.232;6.826;2023-02-19T03:33:41;24.70;44.40
52073;DHT22;38074;51.232;6.826;2023-02-19T03:48:17;24.60;44.40
52073;DHT22;38074;51.232;6.826;2023-02-19T03:56:08;24.60;44.40
52073;DHT22;38074;51.232;6.826;2023-02-19T04:03:32;24.60;44.40
52073;DHT22;38074;51.232;6.826;2023-02-19T04:10:50;24.60;44.50
52073;DHT22;38074;51.232;6.826;2023-02-19T04:18:13;24.60;44.50
52073;DHT22;38074;51.232;6.826;2023-02-19T04:25:30;24.60;44.50
52073;DHT22;38074;51.232;6.826;2023-02-19T04:32:46;24.60;44.50
52073;DHT22;38074;51.232;6.826;2023-02-19T04:40:02;24.60;44.40
52073;DHT22;38074;51.232;6.826;2023-02-19T04:47:17;24.60;44.50
52073;DHT22;38074;51.232;6.826;2023-02-19T04:54:33;24.60;44.50
52073;DHT22;38074;51.232;6.826;2023-02-19T05:01:48;24.60;44.50
52073;DHT22;38074;51.232;6.826;2023-02-19T05:09:03;24.50;44.50
52073;DHT22;38074;51.232;6.826;2023-02-19T05:16:19;24.50;44.50
52073;DHT22;38074;51.232;6.826;2023-02-19T05:23:35;24.50;44.50
52073;DHT22;38074;51.232;6.826;2023-02-19T05:30:51;24.50;44.50
52073;DHT22;38074;51.232;6.826;2023-02-19T05:38:07;24.60;44.50
52073;DHT22;38074;51.232;6.826;2023-02-19T05:45:22;24.50;44.50
52073;DHT22;38074;51.232;6.826;2023-02-19T05:52:38;24.50;44.50
52073;DHT22;38074;51.232;6.826;2023-02-19T05:59:53;24.50;44.50
52073;DHT22;38074;51.232;6.826;2023-02-19T06:07:10;24.50;44.50
52073;DHT22;38074;51.232;6.826;2023-02-19T06:14:26;24.50;44.50
52073;DHT22;38074;51.232;6.826;2023-02-19T06:21:41;24.50;44.50
52073;DHT22;38074;51.232;6.826;2023-02-19T06:28:57;24.50;44.50
52073;DHT22;38074;51.232;6.826;2023-02-19T06:36:14;24.50;44.40
52073;DHT22;38074;51.232;6.826;2023-02-19T06:43:31;24.50;44.40
52073;DHT22;38074;51.232;6.826;2023-02-19T06:50:47;24.50;44.50
52073;DHT22;38074;51.232;6.826;2023-02-19T06:58:02;24.50;44.40
52073;DHT22;38074;51.232;6.826;2023-02-19T07:05:18;24.50;44.40
52073;DHT22;38074;51.232;6.826;2023-02-19T07:12:33;24.50;44.40
52073;DHT22;38074;51.232;6.826;2023-02-19T07:19:49;24.50;44.40
52073;DHT22;38074;51.232;6.826;2023-02-19T07:27:04;24.50;44.40
52073;DHT22;38074;51.232;6.826;2023-02-19T07:34:20;24.50;44.50
52073;DHT22;38074;51.232;6.826;2023-02-19T07:41:35;24.50;44.50
52073;DHT22;38074;51.232;6.826;2023-02-19T07:48:51;24.50;44.40
52073;DHT22;38074;51.232;6.826;2023-02-19T07:56:07;24.50;44.30
52073;DHT22;38074;51.232;6.826;2023-02-19T08:03:24;24.40;44.10
52073;DHT22;38074;51.232;6.826;2023-02-19T08:10:40;24.40;44.00
52073;DHT22;38074;51.232;6.826;2023-02-19T08:18:15;24.40;43.90
52073;DHT22;38074;51.232;6.826;2023-02-19T08:25:31;24.30;43.80
52073;DHT22;38074;51.232;6.826;2023-02-19T08:32:47;24.40;43.90
52073;DHT22;38074;51.232;6.826;2023-02-19T08:40:03;24.40;43.90
52073;DHT22;38074;51.232;6.826;2023-02-19T08:47:18;24.40;44.00
52073;DHT22;38074;51.232;6.826;2023-02-19T08:54:34;24.40;44.00
52073;DHT22;38074;51.232;6.826;2023-02-19T09:01:49;24.40;44.20
52073;DHT22;38074;51.232;6.826;2023-02-19T09:09:07;24.50;44.50
52073;DHT22;38074;51.232;6.826;2023-02-19T09:16:23;24.50;44.40
52073;DHT22;38074;51.232;6.826;2023-02-19T09:23:38;24.40;44.40
52073;DHT22;38074;51.232;6.826;2023-02-19T09:30:54;24.40;44.40
52073;DHT22;38074;51.232;6.826;2023-02-19T09:38:09;24.40;44.40
52073;DHT22;38074;51.232;6.826;2023-02-19T09:45:25;24.40;44.50
52073;DHT22;38074;51.232;6.826;2023-02-19T09:53:02;24.40;44.50
52073;DHT22;38074;51.232;6.826;2023-02-19T10:00:21;24.40;44.50
52073;DHT22;38074;51.232;6.826;2023-02-19T10:07:40;24.40;44.50
52073;DHT22;38074;51.232;6.826;2023-02-19T10:15:10;24.30;44.50
52073;DHT22;38074;51.232;6.826;2023-02-19T10:22:26;24.40;44.50
52073;DHT22;38074;51.232;6.826;2023-02-19T10:29:42;24.30;44.40
52073;DHT22;38074;51.232;6.826;2023-02-19T10:36:59;24.30;44.40
52073;DHT22;38074;51.232;6.826;2023-02-19T10:44:17;24.30;44.40
52073;DHT22;38074;51.232;6.826;2023-02-19T10:51:37;24.30;44.40
52073;DHT22;38074;51.232;6.826;2023-02-19T10:58:53;24.30;44.40
52073;DHT22;38074;51.232;6.826;2023-02-19T11:06:10;24.30;44.40
52073;DHT22;38074;51.232;6.826;2023-02-19T11:13:32;24.30;44.40
52073;DHT22;38074;51.232;6.826;2023-02-19T11:20:56;24.30;44.40
52073;DHT22;38074;51.232;6.826;2023-02-19T11:35:46;24.30;44.30
52073;DHT22;38074;51.232;6.826;2023-02-19T11:43:05;24.30;44.30
52073;DHT22;38074;51.232;6.826;2023-02-19T11:50:40;24.30;44.20
52073;DHT22;38074;51.232;6.826;2023-02-19T11:58:11;24.30;44.30
52073;DHT22;38074;51.232;6.826;2023-02-19T12:06:05;24.30;44.30
52073;DHT22;38074;51.232;6.826;2023-02-19T12:21:13;24.20;44.20
52073;DHT22;38074;51.232;6.826;2023-02-19T12:36:04;24.30;44.30
52073;DHT22;38074;51.232;6.826;2023-02-19T12:43:22;24.30;44.10
52073;DHT22;38074;51.232;6.826;2023-02-19T12:50:39;24.30;44.20
52073;DHT22;38074;51.232;6.826;2023-02-19T12:57:56;24.30;44.20
52073;DHT22;38074;51.232;6.826;2023-02-19T13:12:38;24.30;44.20
52073;DHT22;38074;51.232;6.826;2023-02-19T13:20:06;24.30;44.20
52073;DHT22;38074;51.232;6.826;2023-02-19T13:27:41;24.30;44.20
52073;DHT22;38074;51.232;6.826;2023-02-19T13:42:38;24.20;44.00
52073;DHT22;38074;51.232;6.826;2023-02-19T13:50:04;24.20;44.00
52073;DHT22;38074;51.232;6.826;2023-02-19T14:04:46;24.20;44.00
52073;DHT22;38074;51.232;6.826;2023-02-19T14:12:20;24.20;44.00
52073;DHT22;38074;51.232;6.826;2023-02-19T14:27:11;24.20;43.80
52073;DHT22;38074;51.232;6.826;2023-02-19T14:34:27;24.20;43.90
52073;DHT22;38074;51.232;6.826;2023-02-19T14:42:21;24.20;43.90
52073;DHT22;38074;51.232;6.826;2023-02-19T14:49:52;24.20;43.80
52073;DHT22;38074;51.232;6.826;2023-02-19T14:57:58;24.20;43.90
52073;DHT22;38074;51.232;6.826;2023-02-19T15:04:48;24.20;43.90
52073;DHT22;38074;51.232;6.826;2023-02-19T15:12:04;24.20;43.90
52073;DHT22;38074;51.232;6.826;2023-02-19T15:19:21;24.20;43.80
52073;DHT22;38074;51.232;6.826;2023-02-19T15:26:39;24.20;43.80
52073;DHT22;38074;51.232;6.826;2023-02-19T15:33:55;24.20;43.80
52073;DHT22;38074;51.232;6.826;2023-02-19T15:41:19;24.20;43.80
52073;DHT22;38074;51.232;6.826;2023-02-19T15:48:41;24.20;43.70
52073;DHT22;38074;51.232;6.826;2023-02-19T15:56:18;24.20;43.70
52073;DHT22;38074;51.232;6.826;2023-02-19T16:03:35;24.20;43.70
52073;DHT22;38074;51.232;6.826;2023-02-19T16:10:56;24.20;43.70
52073;DHT22;38074;51.232;6.826;2023-02-19T16:18:13;24.20;43.70
52073;DHT22;38074;51.232;6.826;2023-02-19T16:25:37;24.20;43.70
52073;DHT22;38074;51.232;6.826;2023-02-19T16:33:19;24.20;43.70
52073;DHT22;38074;51.232;6.826;2023-02-19T16:41:05;24.20;43.60
52073;DHT22;38074;51.232;6.826;2023-02-19T16:48:24;24.20;43.60
52073;DHT22;38074;51.232;6.826;2023-02-19T16:55:40;24.20;43.60
52073;DHT22;38074;51.232;6.826;2023-02-19T17:02:58;24.10;43.50
52073;DHT22;38074;51.232;6.826;2023-02-19T17:10:20;24.10;43.50
52073;DHT22;38074;51.232;6.826;2023-02-19T17:17:37;24.10;43.50
52073;DHT22;38074;51.232;6.826;2023-02-19T17:24:53;24.10;43.50
52073;DHT22;38074;51.232;6.826;2023-02-19T17:32:09;24.10;43.50
52073;DHT22;38074;51.232;6.826;2023-02-19T17:39:25;24.10;43.40
52073;DHT22;38074;51.232;6.826;2023-02-19T17:46:40;24.10;43.40
52073;DHT22;38074;51.232;6.826;2023-02-19T17:53:56;24.10;43.30
52073;DHT22;38074;51.232;6.826;2023-02-19T18:01:12;24.10;43.30
52073;DHT22;38074;51.232;6.826;2023-02-19T18:08:28;24.10;43.30
52073;DHT22;38074;51.232;6.826;2023-02-19T18:15:43;24.10;43.30
52073;DHT22;38074;51.232;6.826;2023-02-19T18:22:58;24.10;43.20
52073;DHT22;38074;51.232;6.826;2023-02-19T18:30:16;24.10;43.20
52073;DHT22;38074;51.232;6.826;2023-02-19T18:37:33;24.10;43.10
52073;DHT22;38074;51.232;6.826;2023-02-19T18:44:49;24.10;43.00
52073;DHT22;38074;51.232;6.826;2023-02-19T18:52:05;24.10;43.00
52073;DHT22;38074;51.232;6.826;2023-02-19T18:59:21;24.10;43.00
52073;DHT22;38074;51.232;6.826;2023-02-19T19:06:37;24.00;42.90
52073;DHT22;38074;51.232;6.826;2023-02-19T19:13:52;24.10;42.90
52073;DHT22;38074;51.232;6.826;2023-02-19T19:21:08;24.10;42.90
52073;DHT22;38074;51.232;6.826;2023-02-19T19:28:23;24.10;42.90
52073;DHT22;38074;51.232;6.826;2023-02-19T19:35:39;24.10;42.80
52073;DHT22;38074;51.232;6.826;2023-02-19T19:42:54;24.00;42.70
52073;DHT22;38074;51.232;6.826;2023-02-19T19:50:11;24.00;42.70
52073;DHT22;38074;51.232;6.826;2023-02-19T19:57:27;24.00;42.60
52073;DHT22;38074;51.232;6.826;2023-02-19T20:04:43;24.00;42.60
52073;DHT22;38074;51.232;6.826;2023-02-19T20:11:58;24.00;42.60
52073;DHT22;38074;51.232;6.826;2023-02-19T20:19:15;24.00;42.60
52073;DHT22;38074;51.232;6.826;2023-02-19T20:26:31;24.00;42.50
52073;DHT22;38074;51.232;6.826;2023-02-19T20:33:47;24.00;42.50
52073;DHT22;38074;51.232;6.826;2023-02-19T20:41:05;24.00;42.40
52073;DHT22;38074;51.232;6.826;2023-02-19T20:48:20;24.00;42.40
52073;DHT22;38074;51.232;6.826;2023-02-19T20:55:36;24.00;42.30
52073;DHT22;38074;51.232;6.826;2023-02-19T21:02:52;24.00;42.30
52073;DHT22;38074;51.232;6.826;2023-02-19T21:10:08;24.00;42.40
52073;DHT22;38074;51.232;6.826;2023-02-19T21:17:23;24.00;42.30
52073;DHT22;38074;51.232;6.826;2023-02-19T21:24:39;24.00;42.20
52073;DHT22;38074;51.232;6.826;2023-02-19T21:31:55;24.00;42.10
52073;DHT22;38074;51.232;6.826;2023-02-19T21:39:13;24.00;42.10
52073;DHT22;38074;51.232;6.826;2023-02-19T21:46:29;24.00;42.10
52073;DHT22;38074;51.232;6.826;2023-02-19T21:53:47;24.00;42.10
52073;DHT22;38074;51.232;6.826;2023-02-19T22:01:02;24.00;42.00
52073;DHT22;38074;51.232;6.826;2023-02-19T22:08:18;24.00;42.00
52073;DHT22;38074;51.232;6.826;2023-02-19T22:15:33;23.90;41.90
52073;DHT22;38074;51.232;6.826;2023-02-19T22:22:49;23.90;41.80
52073;DHT22;38074;51.232;6.826;2023-02-19T22:30:05;23.90;41.80
52073;DHT22;38074;51.232;6.826;2023-02-19T22:37:21;23.90;41.70
52073;DHT22;38074;51.232;6.826;2023-02-19T22:44:36;23.90;41.70
52073;DHT22;38074;51.232;6.826;2023-02-19T22:52:00;23.90;41.70
52073;DHT22;38074;51.232;6.826;2023-02-19T22:59:16;23.90;41.60
52073;DHT22;38074;51.232;6.826;2023-02-19T23:06:33;23.90;41.60
52073;DHT22;38074;51.232;6.826;2023-02-19T23:13:49;23.90;41.50
52073;DHT22;38074;51.232;6.826;2023-02-19T23:21:05;23.90;41.50
52073;DHT22;38074;51.232;6.826;2023-02-19T23:28:20;24.00;41.60
52073;DHT22;38074;51.232;6.826;2023-02-19T23:35:36;23.90;41.40
52073;DHT22;38074;51.232;6.826;2023-02-19T23:42:51;23.90;41.40
52073;DHT22;38074;51.232;6.826;2023-02-19T23:50:07;23.90;41.40
52073;DHT22;38074;51.232;6.826;2023-02-19T23:57:23;23.90;41.40
